Weather - Helsinki Query any day in the database

Current weather  

Weather data for a selected day (2006-01-01 -2020-10-30)
Enter date:     <-     scroll days         ->
day curves
Low temperature°C -1.023:50
High temperature°C +2.018:20
Low wind chill°C -7.304:50
Average temperature°C +0.8 
High wind speed (10 min) m/s 10.704:50
Low pressurehPa 972.010:50
High pressurehPa 989.000:50
Low R.H% 8600:20
High R.H% 10022:50
High precipitation (1h)mm 1.406:50
Total precipitation of the daymm 6.2 
Day weather data as a table
Date Time Temp
°C
Chill
°C
Pressure
hPA
Wind
m/s
Hum
%
Precip
mm
2016-02-02 23:50:00 -1.0  -4.4  980.0 2.7 92 -
2016-02-02 23:20:00 -1.0  -4.4  980.0 2.7 92 -
2016-02-02 22:50:00 -1.0  -4.8  979.0 3.1 100 -
2016-02-02 22:20:00 0.0  -4.0  979.0 3.6 92 -
2016-02-02 21:50:00 1.0  -3.9  979.0 5.4 86 -
2016-02-02 21:20:00 1.0  -4.3  979.0 6.3 93 -
2016-02-02 20:50:00 1.0  -2.8  979.0 3.6 93 -
2016-02-02 20:20:00 1.0  -2.4  979.0 3.1 93 -
2016-02-02 19:50:00 1.0  -3.1  978.0 4.0 93 -
2016-02-02 19:20:00 1.0  -3.4  978.0 4.5 93 -
2016-02-02 18:50:00 1.0  -4.5  978.0 6.7 93 -
2016-02-02 18:20:00 2.0  -3.6  978.0 7.6 86 -
2016-02-02 17:50:00 2.0  -3.1  977.0 6.3 86 -
2016-02-02 17:20:00 2.0  -3.4  977.0 7.2 86 -
2016-02-02 16:50:00 2.0  -3.2  976.0 6.7 93 -
2016-02-02 16:20:00 2.0  -3.2  976.0 6.7 93 -
2016-02-02 15:50:00 2.0  -3.2  976.0 6.7 93 -
2016-02-02 15:20:00 2.0  -3.2  976.0 6.7 93 -
2016-02-02 14:50:00 1.0  -4.1  976.0 5.8 100 -
2016-02-02 14:20:00 1.0  -4.3  975.0 6.3 93 -
2016-02-02 13:50:00 1.0  -4.5  975.0 6.7 93 0.1
2016-02-02 13:20:00 1.0  -4.1  975.0 5.8 93 -
2016-02-02 12:50:00 1.0  -4.3  974.0 6.3 93 0.1
2016-02-02 12:20:00 1.0  -4.3  974.0 6.3 93 -
2016-02-02 11:50:00 1.0  -5.0  973.0 8.0 93 0.1
2016-02-02 11:20:00 1.0  -4.7  973.0 7.2 93 -
2016-02-02 10:50:00 1.0  -4.7  972.0 7.2 93 0.5
2016-02-02 10:20:00 1.0  -4.7  972.0 7.2 93 -
2016-02-02 09:50:00 1.0  -5.4  972.0 8.9 93 0.4
2016-02-02 09:20:00 2.0  -3.4  972.0 7.2 93 -
2016-02-02 08:50:00 2.0  -3.1  972.0 6.3 93 -
2016-02-02 08:20:00 1.0  -4.7  972.0 7.2 100 -
2016-02-02 07:50:00 1.0  -3.9  972.0 5.4 100 0.1
2016-02-02 07:20:00 1.0  -4.5  972.0 6.7 100 -
2016-02-02 06:50:00 0.0  -6.2  973.0 7.6 100 1.4
2016-02-02 06:20:00 0.0  -6.7  974.0 8.9 100 -
2016-02-02 05:50:00 0.0  -6.7  975.0 8.9 92 0.9
2016-02-02 05:20:00 0.0  -7.0  976.0 9.8 92 -
2016-02-02 04:50:00 0.0  -7.3  978.0 10.7 92 1.0
2016-02-02 04:20:00 0.0  -7.3  979.0 10.7 92 -
2016-02-02 03:50:00 0.0  -7.3  981.0 10.7 100 1.1
2016-02-02 03:20:00 0.0  -7.1  982.0 10.3 100 -
2016-02-02 02:50:00 0.0  -7.0  983.0 9.8 100 0.3
2016-02-02 02:20:00 0.0  -6.2  985.0 7.6 100 -
2016-02-02 01:50:00 0.0  -6.3  986.0 8.0 92 0.2
2016-02-02 01:20:00 0.0  -6.0  987.0 7.2 92 -
2016-02-02 00:50:00 1.0  -4.9  989.0 7.6 86 -
2016-02-02 00:20:00 1.0  -4.9  989.0 7.6 86 -
Unit conversions: